Time;durP1;ratioP1;P1;durP2;ratioP2;P2;SDS_P1;SDS_P2;PMS_P1;PMS_P2;Temp;Humidity;BMP_temperature;BMP_pressure;BME280_temperature;BME280_humidity;BME280_pressure;Samples;Min_cycle;Max_cycle;Signal;HPM_P1;HPM_P2
2023/09/20 00:02:14;;;;;;;3.55;3.25;;;19.30;99.90;;;19.62;96.01;100627.13;5054498;28;20071;-76
2023/09/20 00:04:43;;;;;;;3.10;2.97;;;19.30;99.90;;;19.53;95.74;100623.03;5070028;28;20053;-75
2023/09/20 00:07:12;;;;;;;3.22;3.13;;;19.30;99.90;;;19.57;95.78;100635.38;5054257;28;20041;-75
2023/09/20 00:09:41;;;;;;;3.40;3.22;;;19.30;99.90;;;19.51;96.07;100637.47;5054011;28;20580;-74
2023/09/20 00:12:11;;;;;;;2.90;2.80;;;19.20;99.90;;;19.48;96.13;100625.06;5054487;28;20056;-76
2023/09/20 00:14:39;;;;;;;3.03;2.93;;;19.20;99.90;;;19.54;96.01;100630.16;5038408;28;20074;-75
2023/09/20 00:17:07;;;;;;;2.65;2.55;;;19.20;99.90;;;19.43;96.58;100631.59;5053950;28;20045;-75
2023/09/20 00:19:38;;;;;;;4.03;3.83;;;19.10;99.90;;;19.45;96.90;100638.59;5054179;28;20390;-75
2023/09/20 00:22:07;;;;;;;3.65;3.45;;;19.10;99.90;;;19.38;97.21;100614.81;5053830;28;20132;-75
2023/09/20 00:24:36;;;;;;;3.08;2.92;;;19.10;99.90;;;19.40;97.47;100635.25;5053415;28;20513;-76
2023/09/20 00:27:04;;;;;;;3.28;3.17;;;19.10;99.90;;;19.44;97.55;100633.31;5052698;28;20072;-75
2023/09/20 00:29:34;;;;;;;3.00;2.90;;;19.10;99.90;;;19.40;97.59;100634.38;5053466;28;20057;-75
2023/09/20 00:32:03;;;;;;;3.47;3.20;;;19.10;99.90;;;19.44;97.69;100626.13;5052671;28;20079;-75
2023/09/20 00:34:32;;;;;;;8.50;2.90;;;19.10;99.90;;;19.36;97.72;100632.78;5052527;28;20063;-75
2023/09/20 00:37:00;;;;;;;3.00;2.90;;;19.00;99.90;;;19.41;97.76;100622.72;5053458;28;20536;-75
2023/09/20 00:39:29;;;;;;;2.97;2.88;;;19.10;99.90;;;19.45;97.61;100627.03;5051498;28;20049;-74
2023/09/20 00:41:58;;;;;;;2.85;2.75;;;19.10;99.90;;;19.42;97.65;100621.78;5052519;28;20045;-75
2023/09/20 00:44:27;;;;;;;3.22;3.03;;;19.10;99.90;;;19.47;97.52;100626.00;5053077;28;20052;-75
2023/09/20 00:46:56;;;;;;;3.80;3.60;;;19.10;99.90;;;19.41;97.63;100620.03;5053172;28;20124;-76
2023/09/20 00:49:25;;;;;;;2.83;2.72;;;19.10;99.90;;;19.45;97.56;100618.97;5053218;28;20036;-75
2023/09/20 00:51:55;;;;;;;2.70;2.60;;;19.10;99.90;;;19.44;97.58;100614.53;5051725;28;20079;-74
2023/09/20 00:54:24;;;;;;;4.40;3.75;;;19.10;99.90;;;19.44;97.62;100614.53;5053259;28;20090;-75
2023/09/20 00:56:52;;;;;;;2.85;2.75;;;19.10;99.90;;;19.52;97.31;100618.63;5053144;28;20045;-75
2023/09/20 00:59:21;;;;;;;2.53;2.42;;;19.20;99.90;;;19.53;97.02;100603.41;5053036;28;20080;-74
2023/09/20 01:01:50;;;;;;;2.60;2.50;;;19.20;99.90;;;19.60;96.94;100604.84;5053136;28;20452;-74
2023/09/20 01:04:20;;;;;;;7.60;2.70;;;19.30;99.90;;;19.64;96.64;100604.66;5052897;28;20045;-75
2023/09/20 01:06:51;;;;;;;2.50;2.40;;;19.30;99.90;;;19.68;96.24;100603.59;5052607;28;20060;-76
2023/09/20 01:09:22;;;;;;;4.80;2.70;;;19.30;99.90;;;19.63;95.75;100599.34;5064779;28;20045;-75
2023/09/20 01:11:51;;;;;;;;;;;19.30;99.90;;;19.71;95.31;100598.06;5037780;28;20052;-75
2023/09/20 01:14:21;;;;;;;2.85;2.75;;;19.40;99.90;;;19.36;94.73;100515.63;5052698;28;20005;-76
2023/09/20 01:16:53;;;;;;;3.13;3.03;;;19.40;99.90;;;19.59;94.77;100587.00;5052519;28;20051;-75
2023/09/20 01:19:23;;;;;;;2.97;2.83;;;19.30;99.90;;;19.65;94.58;100584.03;5051520;28;20111;-75
2023/09/20 01:21:53;;;;;;;3.28;3.17;;;19.30;99.90;;;19.77;94.05;100594.22;5052560;28;20053;-74
2023/09/20 01:24:24;;;;;;;3.50;3.20;;;19.40;99.90;;;19.68;93.77;100598.22;5052944;28;20048;-76
2023/09/20 01:26:57;;;;;;;3.85;3.53;;;19.40;99.90;;;19.73;93.60;100606.91;5065104;28;20053;-74
2023/09/20 01:29:27;;;;;;;2.78;2.67;;;19.40;99.90;;;19.69;93.50;100607.09;5052225;28;20041;-75
2023/09/20 01:32:02;;;;;;;3.22;3.03;;;19.40;99.90;;;19.71;93.20;100610.59;5048152;28;20479;-75
2023/09/20 01:34:32;;;;;;;3.35;3.13;;;19.40;99.90;;;19.67;92.71;100592.88;5045328;28;20048;-75
2023/09/20 01:37:03;;;;;;;3.00;2.90;;;19.30;99.90;;;19.73;92.60;100601.53;5052547;28;20052;-75
2023/09/20 01:39:33;;;;;;;4.20;4.00;;;19.40;99.90;;;19.68;92.57;100606.25;5052056;28;20041;-75
2023/09/20 01:42:01;;;;;;;15.18;4.57;;;19.40;99.90;;;19.67;92.33;100596.44;5051919;28;20398;-75
2023/09/20 01:44:30;;;;;;;3.40;3.20;;;19.40;99.90;;;19.67;91.82;100587.53;5051855;28;20105;-75
2023/09/20 01:47:03;;;;;;;3.17;3.08;;;19.30;99.90;;;19.64;91.61;100612.72;5050543;28;20079;-74
2023/09/20 01:49:34;;;;;;;2.85;2.75;;;19.30;99.90;;;19.67;91.47;100585.72;5052319;28;20045;-75
2023/09/20 01:52:07;;;;;;;7.95;3.92;;;19.30;99.90;;;19.61;91.02;100594.03;5052007;28;20478;-75
2023/09/20 01:54:37;;;;;;;2.85;2.75;;;19.30;99.90;;;19.69;91.11;100588.31;5051191;28;20064;-75
2023/09/20 01:57:06;;;;;;;2.67;2.58;;;19.40;99.90;;;19.64;90.92;100593.94;5052541;28;20041;-74
2023/09/20 01:59:34;;;;;;;4.90;4.35;;;19.30;99.90;;;19.68;90.93;100578.53;5051859;28;20036;-75
2023/09/20 02:02:04;;;;;;;5.57;3.53;;;19.40;99.90;;;19.58;90.87;100585.28;5051021;28;20049;-74
2023/09/20 02:04:32;;;;;;;2.67;2.58;;;19.30;99.90;;;19.63;91.20;100580.56;5047323;28;20137;-75
2023/09/20 02:07:02;;;;;;;3.22;3.08;;;19.30;99.90;;;19.64;91.13;100601.09;5052545;28;20115;-75
2023/09/20 02:09:32;;;;;;;2.63;2.53;;;19.30;99.90;;;19.61;91.09;100577.06;5052164;28;20052;-73
2023/09/20 02:12:00;;;;;;;6.87;3.60;;;19.30;99.90;;;19.56;91.33;100569.25;5064224;28;20077;-75
2023/09/20 02:14:28;;;;;;;4.13;3.53;;;19.30;99.90;;;19.59;91.16;100576.25;5050994;28;20095;-75
2023/09/20 02:16:57;;;;;;;2.92;2.83;;;19.30;99.90;;;19.66;91.44;100585.78;5064326;28;20053;-74
2023/09/20 02:19:26;;;;;;;4.32;3.00;;;19.30;99.90;;;19.57;91.20;100568.28;5041063;28;20104;-75
2023/09/20 02:21:54;;;;;;;2.70;2.60;;;19.30;99.90;;;19.63;91.35;100561.75;5052189;28;20045;-75
2023/09/20 02:24:23;;;;;;;6.72;4.13;;;19.30;99.90;;;19.49;91.16;100548.97;5051772;28;20114;-75
2023/09/20 02:26:52;;;;;;;3.13;2.92;;;19.20;99.90;;;19.50;91.27;100557.91;5052092;28;20462;-75
2023/09/20 02:29:23;;;;;;;3.55;3.35;;;19.20;99.90;;;19.41;91.33;100543.13;5052070;28;20400;-75
2023/09/20 02:31:51;;;;;;;10.30;4.03;;;19.20;99.90;;;19.53;91.29;100569.38;5052074;28;20421;-75
2023/09/20 02:34:20;;;;;;;3.58;3.38;;;19.20;99.90;;;19.49;91.14;100553.50;5051457;28;20136;-75
2023/09/20 02:36:49;;;;;;;2.88;2.78;;;19.20;99.90;;;19.50;91.13;100557.91;5051994;28;20090;-75
2023/09/20 02:39:18;;;;;;;3.53;2.65;;;19.10;99.90;;;19.49;91.18;100540.94;5064073;28;20057;-75
2023/09/20 02:41:46;;;;;;;2.90;2.80;;;19.20;99.90;;;19.47;90.84;100556.22;5050346;28;20049;-75
2023/09/20 02:44:16;;;;;;;7.97;3.97;;;19.20;99.90;;;19.44;91.08;100545.66;5051592;28;20059;-75
2023/09/20 02:46:48;;;;;;;2.65;2.55;;;19.10;99.90;;;19.55;91.14;100547.84;5062957;28;20414;-75
2023/09/20 02:49:17;;;;;;;3.30;3.10;;;19.20;99.90;;;19.56;90.77;100544.22;5051562;28;20443;-75
2023/09/20 02:51:47;;;;;;;3.05;2.95;;;19.20;99.90;;;19.58;90.54;100534.28;5055012;28;20068;-76
2023/09/20 02:54:18;;;;;;;2.65;2.55;;;19.20;99.90;;;19.61;90.68;100532.31;5039230;28;20402;-75
2023/09/20 02:56:47;;;;;;;2.78;2.67;;;19.30;99.90;;;19.65;90.52;100539.28;5067140;28;20054;-74
2023/09/20 02:59:17;;;;;;;3.03;2.83;;;19.30;99.90;;;19.63;90.47;100534.94;5047403;28;20385;-75
2023/09/20 03:01:47;;;;;;;3.45;3.25;;;19.30;99.90;;;19.63;90.64;100513.47;5056961;28;20049;-74
2023/09/20 03:04:17;;;;;;;2.72;2.63;;;19.30;99.90;;;19.58;90.89;100512.81;5068306;28;20175;-74
2023/09/20 03:06:46;;;;;;;3.10;3.00;;;19.30;99.90;;;19.44;91.01;100507.22;5067225;28;20036;-74
2023/09/20 03:09:17;;;;;;;3.08;2.97;;;19.20;99.90;;;19.60;90.97;100521.66;5048389;28;20094;-75
2023/09/20 03:11:45;;;;;;;;;;;19.30;99.90;;;19.57;91.04;100520.00;5054177;28;20131;-74
2023/09/20 03:14:13;;;;;;;4.18;3.85;;;19.20;99.90;;;19.49;90.96;100521.31;5053855;28;20346;-75
2023/09/20 03:16:44;;;;;;;4.80;4.40;;;19.20;99.90;;;19.50;91.32;100507.81;5067157;28;20422;-75
2023/09/20 03:19:14;;;;;;;2.97;2.88;;;19.20;99.90;;;19.51;91.07;100492.59;5054047;28;20045;-75
2023/09/20 03:21:43;;;;;;;4.45;4.07;;;19.20;99.90;;;19.46;91.37;100490.13;5053490;28;20064;-75
2023/09/20 03:24:12;;;;;;;3.40;3.20;;;19.20;99.90;;;19.44;91.53;100481.25;5066921;28;20049;-74
2023/09/20 03:26:42;;;;;;;3.10;3.00;;;19.10;99.90;;;19.45;91.38;100499.09;5050276;28;20037;-74
2023/09/20 03:29:12;;;;;;;5.32;4.93;;;19.10;99.90;;;19.37;91.50;100481.63;5049333;28;20060;-75
2023/09/20 03:31:43;;;;;;;2.60;2.50;;;19.10;99.90;;;19.46;91.61;100497.28;5053720;28;20053;-75
2023/09/20 03:34:14;;;;;;;3.60;3.30;;;19.10;99.90;;;19.46;91.40;100491.91;5043209;28;20069;-73
2023/09/20 03:36:46;;;;;;;2.80;2.70;;;19.10;99.90;;;19.48;91.62;100498.09;5063154;28;20060;-76
2023/09/20 03:39:15;;;;;;;2.78;2.67;;;19.10;99.90;;;19.41;91.69;100484.09;5053643;28;20486;-74
2023/09/20 03:41:44;;;;;;;2.70;2.60;;;19.10;99.90;;;19.48;91.59;100477.50;5054832;28;20110;-74
2023/09/20 03:44:14;;;;;;;2.92;2.72;;;19.20;99.90;;;19.42;91.57;100471.53;5052744;28;20053;-74
2023/09/20 03:46:44;;;;;;;2.70;2.60;;;19.20;99.90;;;19.41;92.06;100484.09;5065764;28;20045;-75
2023/09/20 03:49:13;;;;;;;2.63;2.53;;;19.10;99.90;;;19.39;91.95;100483.31;5051893;28;20072;-75
2023/09/20 03:51:42;;;;;;;2.78;2.65;;;19.10;99.90;;;19.47;91.96;100474.91;5049181;28;20037;-75
2023/09/20 03:54:11;;;;;;;3.28;3.10;;;19.20;99.90;;;19.39;92.22;100479.75;5059810;28;20132;-75
2023/09/20 03:56:41;;;;;;;2.80;2.70;;;19.10;99.90;;;19.45;92.29;100471.41;5065956;28;20053;-75
2023/09/20 03:59:12;;;;;;;2.75;2.65;;;19.10;99.90;;;19.44;92.22;100467.84;5052260;28;20099;-75
2023/09/20 04:01:41;;;;;;;3.20;3.10;;;19.10;99.90;;;19.49;91.96;100471.19;5065349;28;20045;-75
2023/09/20 04:04:11;;;;;;;3.40;3.22;;;19.20;99.90;;;19.47;91.73;100466.84;5052823;28;20041;-75
2023/09/20 04:06:39;;;;;;;2.70;2.55;;;19.20;99.90;;;19.46;91.93;100476.69;5054111;28;20041;-75
2023/09/20 04:09:10;;;;;;;4.90;4.40;;;19.10;99.90;;;19.44;91.83;100466.97;5052929;28;20041;-76
2023/09/20 04:11:40;;;;;;;2.97;2.88;;;19.20;99.90;;;19.44;92.12;100475.91;5066095;28;20053;-75
2023/09/20 04:14:09;;;;;;;2.75;2.65;;;19.10;99.90;;;19.42;91.64;100463.50;5046266;28;20512;-75
2023/09/20 04:16:39;;;;;;;3.13;2.95;;;19.10;99.90;;;19.35;91.69;100467.41;5053637;28;20460;-75
2023/09/20 04:19:09;;;;;;;2.63;2.53;;;19.10;99.90;;;19.39;91.91;100471.69;5052743;28;20055;-75
2023/09/20 04:21:38;;;;;;;4.35;4.00;;;19.10;99.90;;;18.68;91.54;100360.56;5049240;28;20065;-75
2023/09/20 04:24:07;;;;;;;2.78;2.67;;;19.00;99.90;;;19.38;91.49;100453.84;5062065;28;20111;-75
2023/09/20 04:26:36;;;;;;;3.63;3.42;;;19.10;99.90;;;19.36;91.67;100455.72;5050438;28;20553;-75
2023/09/20 04:29:04;;;;;;;3.17;3.08;;;19.10;99.90;;;19.28;91.73;100439.97;5065805;28;20091;-75
2023/09/20 04:31:33;;;;;;;5.15;3.03;;;19.00;99.90;;;19.28;91.72;100439.13;5052331;28;20139;-74
2023/09/20 04:34:01;;;;;;;3.70;3.50;;;18.90;99.90;;;19.19;92.01;100448.44;5052485;28;20057;-74
2023/09/20 04:36:31;;;;;;;2.85;2.75;;;18.90;99.90;;;19.20;92.24;100457.38;5047606;28;20057;-75
2023/09/20 04:39:00;;;;;;;2.85;2.75;;;18.90;99.90;;;19.15;92.37;100451.34;5065555;28;20077;-74
2023/09/20 04:41:28;;;;;;;3.22;3.13;;;18.80;99.90;;;19.11;92.33;100439.00;5052219;28;20045;-75
2023/09/20 04:43:57;;;;;;;2.50;2.40;;;18.80;99.90;;;19.07;92.46;100434.72;5053432;28;20045;-75
2023/09/20 04:46:27;;;;;;;3.13;3.03;;;18.80;99.90;;;19.03;92.54;100425.97;5067375;28;20050;-75
2023/09/20 04:48:57;;;;;;;2.90;2.80;;;18.70;99.90;;;19.09;92.45;100435.53;5051703;28;20045;-75
2023/09/20 04:51:26;;;;;;;3.80;3.50;;;18.80;99.90;;;19.04;92.60;100429.53;5064362;28;20053;-76
2023/09/20 04:53:56;;;;;;;2.75;2.65;;;18.80;99.90;;;19.16;92.44;100434.31;5051383;28;20053;-75
2023/09/20 04:56:24;;;;;;;3.10;3.00;;;18.80;99.90;;;19.14;92.50;100439.75;5051580;28;20137;-75
2023/09/20 04:58:57;;;;;;;2.88;2.78;;;18.80;99.90;;;19.12;92.84;100430.03;5063912;28;20418;-75
2023/09/20 05:01:26;;;;;;;3.60;3.13;;;18.80;99.90;;;19.12;92.70;100441.63;5052514;28;20045;-75
2023/09/20 05:03:55;;;;;;;3.45;3.35;;;18.80;99.90;;;19.11;92.93;100429.16;5055446;28;20052;-74
2023/09/20 05:06:24;;;;;;;3.00;2.88;;;18.80;99.90;;;19.09;93.06;100427.47;5067095;28;20056;-74
2023/09/20 05:08:54;;;;;;;4.82;4.40;;;18.80;99.90;;;18.98;93.16;100422.63;5064727;28;20037;-75
2023/09/20 05:11:24;;;;;;;4.13;3.80;;;18.70;99.90;;;19.06;93.20;100423.16;5051656;28;20110;-76
2023/09/20 05:13:55;;;;;;;2.70;2.60;;;18.80;99.90;;;19.00;93.69;100426.13;5053545;28;20049;-74
2023/09/20 05:16:23;;;;;;;4.05;3.75;;;18.70;99.90;;;19.02;93.25;100444.81;5051591;28;20049;-76
2023/09/20 05:18:52;;;;;;;3.50;3.25;;;18.70;99.90;;;18.78;93.53;100367.25;5048425;28;20060;-75
2023/09/20 05:21:21;;;;;;;3.80;3.50;;;18.70;99.90;;;18.97;93.44;100425.38;5046794;28;20041;-75
2023/09/20 05:23:49;;;;;;;3.65;3.45;;;18.70;99.90;;;18.90;93.58;100408.72;5052954;28;20037;-75
2023/09/20 05:26:19;;;;;;;5.05;3.67;;;18.60;99.90;;;18.98;94.00;100416.41;5052749;28;20045;-75
2023/09/20 05:28:47;;;;;;;2.95;2.85;;;18.70;99.90;;;19.08;93.53;100420.41;5052335;28;20040;-75
2023/09/20 05:31:17;;;;;;;2.92;2.83;;;18.80;99.90;;;19.07;93.42;100432.03;5064676;28;20048;-75
2023/09/20 05:33:45;;;;;;;3.38;3.25;;;18.80;99.90;;;19.02;93.38;100428.72;5050987;28;20045;-74
2023/09/20 05:36:14;;;;;;;2.90;2.80;;;18.70;99.90;;;18.99;93.53;100444.97;5052351;28;20099;-74
2023/09/20 05:38:42;;;;;;;3.33;3.17;;;18.70;99.90;;;19.00;93.69;100450.25;5052667;28;20047;-74
2023/09/20 05:41:12;;;;;;;4.10;3.63;;;18.70;99.90;;;18.92;93.45;100421.09;5064708;28;20844;-75
2023/09/20 05:43:43;;;;;;;3.83;3.63;;;18.70;99.90;;;18.90;93.66;100428.34;5051546;28;20045;-76
2023/09/20 05:46:13;;;;;;;3.45;3.25;;;18.60;99.90;;;18.82;93.62;100438.53;5052277;28;20310;-76
2023/09/20 05:48:44;;;;;;;4.63;3.83;;;18.60;99.90;;;18.85;93.85;100422.31;5052776;28;20136;-76
2023/09/20 05:51:17;;;;;;;3.33;3.05;;;18.60;99.90;;;18.88;93.56;100427.53;5064466;28;20391;-76
2023/09/20 05:53:45;;;;;;;3.25;3.10;;;18.60;99.90;;;18.85;93.40;100424.97;5051890;28;20073;-75
2023/09/20 05:56:15;;;;;;;11.02;4.93;;;18.60;99.90;;;18.75;93.75;100412.09;5064137;28;20050;-73
2023/09/20 05:58:45;;;;;;;4.00;3.70;;;18.60;99.90;;;18.89;93.99;100440.00;5045304;28;20049;-75
2023/09/20 06:01:17;;;;;;;7.00;6.50;;;18.60;99.90;;;18.93;93.90;100430.88;5051555;28;20033;-75
2023/09/20 06:03:47;;;;;;;3.17;3.05;;;18.60;99.90;;;18.98;93.77;100436.03;5051635;28;20049;-74
2023/09/20 06:06:16;;;;;;;3.10;3.00;;;18.70;99.90;;;18.95;93.49;100430.78;5063884;28;20131;-75
2023/09/20 06:08:46;;;;;;;2.90;2.70;;;18.60;99.90;;;18.91;93.67;100432.75;5046696;28;20045;-74
2023/09/20 06:11:16;;;;;;;2.92;2.83;;;18.70;99.90;;;18.98;94.09;100419.06;5051144;28;20482;-74
2023/09/20 06:13:45;;;;;;;4.15;3.85;;;18.70;99.90;;;18.97;93.96;100409.31;5051710;28;20044;-75
2023/09/20 06:16:14;;;;;;;3.43;2.97;;;18.70;99.90;;;18.82;94.14;100386.75;5063498;28;20487;-73
2023/09/20 06:18:44;;;;;;;3.53;3.35;;;18.70;99.90;;;18.97;94.47;100425.38;5062863;28;20045;-74
2023/09/20 06:21:17;;;;;;;2.60;2.50;;;18.70;99.90;;;18.97;94.58;100425.38;5036319;28;20041;-70
2023/09/20 06:23:46;;;;;;;3.45;3.25;;;18.70;99.90;;;18.84;95.00;100395.56;5052159;28;20099;-71
2023/09/20 06:26:14;;;;;;;3.20;3.00;;;18.60;99.90;;;18.93;94.93;100412.09;5055774;28;20044;-73
2023/09/20 06:28:43;;;;;;;5.30;4.90;;;18.60;99.90;;;18.76;95.28;100389.69;5053504;28;20053;-75
2023/09/20 06:31:15;;;;;;;5.40;4.50;;;18.60;99.90;;;18.89;95.55;100436.47;5055093;28;20053;-76
2023/09/20 06:33:46;;;;;;;3.33;3.22;;;18.60;99.90;;;18.95;95.35;100427.28;5055508;28;20037;-76
2023/09/20 06:36:19;;;;;;;2.90;2.80;;;18.60;99.90;;;18.92;95.55;100434.50;5053998;28;20057;-77
2023/09/20 06:38:48;;;;;;;3.20;2.83;;;18.60;99.90;;;18.92;95.58;100409.50;5055229;28;20037;-76
2023/09/20 06:41:17;;;;;;;2.90;2.80;;;18.60;99.90;;;18.96;95.79;100418.28;5055193;28;20041;-76
2023/09/20 06:43:46;;;;;;;3.80;3.58;;;18.70;99.90;;;18.92;95.76;100415.75;5055329;28;20048;-76
2023/09/20 06:46:16;;;;;;;3.10;3.00;;;18.70;99.90;;;18.93;95.61;100400.50;5054971;28;20122;-76
2023/09/20 06:48:44;;;;;;;6.78;3.30;;;18.60;99.90;;;18.91;95.64;100384.50;5055342;28;20065;-75
2023/09/20 06:51:13;;;;;;;6.97;3.92;;;18.60;99.90;;;18.76;95.41;100409.34;5053760;28;20045;-76
2023/09/20 06:53:41;;;;;;;6.35;3.10;;;18.60;99.90;;;18.94;95.63;100410.31;5055504;28;20087;-84
2023/09/20 06:56:10;;;;;;;4.18;3.75;;;18.60;99.90;;;18.89;95.39;100436.47;5054874;28;20448;-84
2023/09/20 06:58:39;;;;;;;2.90;2.78;;;18.60;99.90;;;18.85;95.94;100422.31;5055362;28;20048;-77
2023/09/20 07:01:09;;;;;;;7.13;4.72;;;18.60;99.90;;;18.94;96.01;100407.63;5066834;28;20092;-79
2023/09/20 07:03:39;;;;;;;12.30;3.78;;;18.60;99.90;;;19.00;95.42;100431.47;5046915;28;20049;-71
2023/09/20 07:06:08;;;;;;;2.97;2.87;;;18.70;99.90;;;18.95;95.29;100405.81;5054495;28;20049;-71
2023/09/20 07:08:37;;;;;;;3.63;3.33;;;18.60;99.90;;;18.89;95.67;100413.19;5053701;28;20087;-76
2023/09/20 07:11:06;;;;;;;3.40;3.30;;;18.70;99.90;;;18.98;96.01;100421.75;5054815;28;20052;-71
2023/09/20 07:13:34;;;;;;;2.78;2.67;;;18.70;99.90;;;19.02;95.97;100426.91;5054620;28;20041;-71
2023/09/20 07:16:05;;;;;;;3.72;3.53;;;18.70;99.90;;;19.02;96.03;100434.97;5054558;28;20037;-70
2023/09/20 07:18:35;;;;;;;4.05;3.42;;;18.70;99.90;;;18.69;95.90;100402.53;5054613;28;20465;-73
2023/09/20 07:21:07;;;;;;;4.22;3.85;;;18.70;99.90;;;18.93;95.88;100440.72;5054856;28;20140;-72
2023/09/20 07:23:38;;;;;;;3.67;3.38;;;18.70;99.90;;;18.86;95.91;100469.63;5054811;28;20063;-71
2023/09/20 07:26:07;;;;;;;3.47;3.20;;;18.60;99.90;;;18.89;96.10;100476.66;5054539;28;20045;-71
2023/09/20 07:28:36;;;;;;;3.88;3.67;;;18.60;99.90;;;18.94;96.61;100466.59;5054640;28;20129;-72
2023/09/20 07:31:06;;;;;;;3.08;2.97;;;18.60;99.90;;;18.89;96.26;100456.06;5054682;28;20048;-71
2023/09/20 07:33:38;;;;;;;4.55;4.25;;;18.60;99.90;;;18.86;96.08;100445.50;5054237;28;20465;-71
2023/09/20 07:36:08;;;;;;;7.15;3.22;;;18.60;99.90;;;18.90;96.22;100465.00;5054427;28;20125;-74
2023/09/20 07:38:37;;;;;;;3.05;2.92;;;18.60;99.90;;;18.79;95.69;100435.13;5054579;28;20098;-75
2023/09/20 07:41:09;;;;;;;2.95;2.85;;;18.60;99.90;;;18.91;95.70;100464.91;5054464;28;20407;-73
2023/09/20 07:43:39;;;;;;;5.28;4.78;;;18.60;99.90;;;18.88;95.62;100465.06;5067538;28;20087;-70
2023/09/20 07:46:08;;;;;;;3.45;3.25;;;18.60;99.90;;;18.88;95.94;100454.34;5054480;28;20041;-81
2023/09/20 07:48:44;;;;;;;3.40;3.20;;;18.60;99.90;;;18.85;95.53;100465.19;5054533;28;20051;-80
2023/09/20 07:51:19;;;;;;;3.85;3.65;;;18.60;99.90;;;18.99;95.79;100463.72;5058656;28;20141;-78
2023/09/20 07:53:53;;;;;;;3.00;2.90;;;18.70;99.90;;;18.98;95.81;100470.88;5054663;28;20041;-79
2023/09/20 07:56:24;;;;;;;3.17;3.05;;;18.70;99.90;;;19.02;95.70;100456.41;5065607;28;20045;-76
2023/09/20 07:58:54;;;;;;;2.90;2.80;;;18.80;99.90;;;19.09;95.63;100460.53;5046340;28;20102;-76
2023/09/20 08:01:29;;;;;;;3.78;2.72;;;18.80;99.90;;;19.09;95.79;100456.97;5052175;28;20140;-76
2023/09/20 08:04:06;;;;;;;3.10;3.00;;;18.80;99.90;;;19.10;95.74;100466.78;5054201;28;20081;-71
2023/09/20 08:06:36;;;;;;;3.00;2.70;;;18.80;99.90;;;19.04;95.55;100489.38;5066005;28;20045;-69
2023/09/20 08:09:06;;;;;;;2.92;2.83;;;18.80;99.90;;;19.04;95.79;100467.94;5052527;28;20053;-68
2023/09/20 08:11:35;;;;;;;2.70;2.60;;;18.70;99.90;;;19.03;95.58;100474.22;5053652;28;20079;-70
2023/09/20 08:14:05;;;;;;;4.10;3.80;;;18.80;99.90;;;18.97;95.83;100471.81;5054200;28;20053;-66
2023/09/20 08:16:34;;;;;;;3.95;3.75;;;18.70;99.90;;;19.04;95.54;100469.72;5053304;28;20426;-70
2023/09/20 08:19:20;;;;;;;3.67;3.20;;;18.80;99.90;;;19.02;95.89;100477.84;5053867;28;20041;-66
2023/09/20 08:21:53;;;;;;;3.35;3.25;;;18.70;99.90;;;19.00;95.83;100463.66;5052325;28;20132;-69
2023/09/20 09:00:34;;;;;;;3.97;3.67;;;18.60;99.90;;;18.93;96.37;100480.94;5052079;28;20041;-76
2023/09/20 09:03:05;;;;;;;3.70;3.50;;;18.60;99.90;;;18.94;96.48;100458.56;5052037;28;20554;-75
2023/09/20 09:05:34;;;;;;;3.92;3.72;;;18.60;99.90;;;18.85;96.19;100459.81;5052225;28;20110;-76
2023/09/20 09:08:06;;;;;;;4.38;3.60;;;18.60;99.90;;;19.02;96.35;100479.66;5050857;28;20045;-70
2023/09/20 09:10:36;;;;;;;3.75;3.55;;;18.70;99.90;;;19.06;96.24;100457.13;5052411;28;20051;-70
2023/09/20 09:13:05;;;;;;;2.92;2.83;;;18.80;99.90;;;19.06;96.09;100467.84;5052221;28;20041;-69
2023/09/20 09:15:35;;;;;;;3.58;3.38;;;18.70;99.90;;;19.08;95.75;100458.81;5051244;28;20079;-70
2023/09/20 09:18:04;;;;;;;3.45;3.25;;;18.80;99.90;;;19.00;95.78;100452.03;5052286;28;20107;-71
2023/09/20 09:20:36;;;;;;;3.45;3.25;;;18.80;99.90;;;19.17;95.97;100471.78;5052045;28;20419;-70
2023/09/20 09:23:05;;;;;;;3.67;3.47;;;18.90;99.90;;;19.12;95.60;100460.41;5052159;28;20048;-70
2023/09/20 09:25:35;;;;;;;3.10;2.80;;;18.90;99.90;;;19.19;95.37;100474.38;5052667;28;20056;-70
2023/09/20 09:28:04;;;;;;;3.00;2.90;;;18.90;99.90;;;19.30;95.49;100472.09;5052286;28;20057;-70
2023/09/20 09:30:33;;;;;;;2.92;2.83;;;19.00;99.90;;;19.41;95.59;100464.44;5051215;28;20088;-70
2023/09/20 09:33:04;;;;;;;3.20;3.10;;;19.10;99.90;;;19.44;95.30;100486.63;5052039;28;20116;-70
2023/09/20 09:35:34;;;;;;;;;;;19.20;99.90;;;19.43;94.91;100466.13;5051189;28;20061;-70
2023/09/20 09:38:21;;;;;;;3.33;3.03;;;19.10;99.90;;;19.45;94.83;100469.59;5052383;28;19924;-70
2023/09/20 09:40:56;;;;;;;2.92;2.83;;;19.20;99.90;;;19.39;94.41;100458.28;5052085;28;20045;-70
2023/09/20 09:43:27;;;;;;;3.63;3.42;;;19.10;99.90;;;19.33;93.99;100426.38;5052290;28;20144;-70
2023/09/20 09:46:08;;;;;;;3.10;3.00;;;19.10;99.90;;;19.46;93.45;100432.91;5050533;28;20044;-70
2023/09/20 09:48:38;;;;;;;4.38;3.72;;;19.10;99.90;;;19.51;93.50;100457.72;5052402;28;20033;-71
2023/09/20 09:51:09;;;;;;;3.20;3.10;;;19.20;99.90;;;19.61;93.16;100429.47;5051954;28;20370;-70
2023/09/20 09:53:40;;;;;;;2.50;2.40;;;19.30;99.90;;;19.65;92.86;100448.03;5052068;28;20033;-71
2023/09/20 09:56:10;;;;;;;12.32;3.65;;;19.30;99.90;;;19.57;92.56;100435.94;5036333;28;20049;-71
2023/09/20 09:58:40;;;;;;;2.78;2.67;;;19.30;99.90;;;19.61;92.95;100434.84;5052051;28;20212;-71
2023/09/20 10:01:10;;;;;;;3.42;3.22;;;19.30;99.90;;;19.65;92.17;100436.44;5055369;28;20123;-70
2023/09/20 10:03:43;;;;;;;3.53;3.33;;;19.40;99.90;;;19.59;92.38;100418.81;5069302;28;20041;-70
2023/09/20 10:06:18;;;;;;;3.88;3.67;;;19.30;99.90;;;19.57;92.53;100407.28;5068334;28;20048;-70
2023/09/20 10:08:52;;;;;;;3.65;3.45;;;19.30;99.90;;;19.65;92.33;100423.00;5055428;28;20079;-70
2023/09/20 10:11:25;;;;;;;2.83;2.72;;;19.30;99.90;;;19.66;92.08;100401.50;5055588;28;20061;-70
2023/09/20 10:13:55;;;;;;;3.42;3.05;;;19.30;99.90;;;19.68;93.00;100413.03;5040063;28;20064;-71
2023/09/20 10:16:25;;;;;;;2.80;2.70;;;19.40;99.90;;;19.70;93.07;100412.94;5055537;28;20449;-70
2023/09/20 10:18:57;;;;;;;3.13;2.92;;;19.40;99.90;;;19.55;92.45;100411.88;5055605;28;20052;-69
2023/09/20 10:21:31;;;;;;;3.58;3.38;;;19.40;99.90;;;19.67;92.88;100403.22;5069843;28;20049;-70
2023/09/20 10:24:05;;;;;;;4.80;4.35;;;19.40;99.90;;;19.62;92.21;100409.75;5056215;28;20052;-70
2023/09/20 10:26:39;;;;;;;3.05;2.85;;;19.30;99.90;;;19.62;92.23;100404.41;5050820;28;20486;-70
2023/09/20 10:29:27;;;;;;;2.92;2.83;;;19.40;99.90;;;19.80;92.35;100401.66;5066687;28;20073;-70
2023/09/20 10:31:57;;;;;;;3.05;2.95;;;19.50;99.90;;;19.84;92.29;100409.59;5056118;28;20052;-70
2023/09/20 10:34:26;;;;;;;2.70;2.60;;;19.50;99.90;;;19.97;92.57;100399.97;5055399;28;20095;-70
2023/09/20 10:36:55;;;;;;;3.10;3.00;;;19.60;99.90;;;19.86;91.74;100407.69;5053042;28;20049;-71
2023/09/20 10:39:25;;;;;;;3.35;3.15;;;19.70;99.90;;;19.95;91.18;100386.63;5070231;28;20049;-70
2023/09/20 10:41:56;;;;;;;2.92;2.83;;;19.70;99.90;;;20.09;91.54;100388.59;5055477;28;20056;-71
2023/09/20 10:44:28;;;;;;;3.50;3.30;;;19.80;99.90;;;20.18;91.73;100402.47;5055310;28;20443;-70
2023/09/20 10:46:59;;;;;;;3.17;2.97;;;19.90;99.90;;;20.17;90.74;100398.00;5055093;28;20455;-69
2023/09/20 10:49:41;;;;;;;3.00;2.80;;;19.90;99.90;;;20.27;90.72;100393.03;5055201;28;20052;-69
2023/09/20 10:52:10;;;;;;;3.05;2.85;;;20.00;99.90;;;20.18;91.44;100346.06;5055233;28;20132;-70
2023/09/20 10:54:39;;;;;;;3.10;2.90;;;20.10;99.90;;;20.37;90.07;100376.38;5055370;28;20041;-69
2023/09/20 10:57:10;;;;;;;4.53;3.40;;;20.10;99.90;;;20.37;90.03;100405.06;5054716;28;20099;-69
2023/09/20 10:59:44;;;;;;;3.03;2.92;;;20.10;99.90;;;20.34;89.12;100399.88;5054040;28;20836;-69
2023/09/20 11:02:16;;;;;;;2.85;2.75;;;20.10;99.90;;;20.37;88.70;100383.56;5054708;28;20432;-69